UPSVAC Airport Information Service

Mumbai / Santacruz

ICAO: VABB Country: India, AS
Latitude: 19.0887 Longitude: 72.8679
Latest Arrival : UPS1183 (EDDK-VABB) Latest Departure : UPS1185 (VABB-OMDB)


WX CaptureLIVE
Data provided by noaa.gov | Fetched at 18:16:39

METAR : VABB 281800Z 23011G21KT 2500 HZ SCT018 SCT025 BKN100 29/26 Q1006 NOSIG

TAF : VABB 281700Z 2818/2924 23010KT 2500 -RA HZ FEW012 SCT018 FEW025TCU BKN090 TEMPO 2818/2903 23010G20KT 1500 -TSRA SHRA FEW012 FEW030TCU/CB BKN080 BECMG 2821/2823 2000 -RA HZ BECMG 2903/2905 2500 -RA HZ TEMPO 2803/2809 23010G20KT 1500 -TSRA SHRA SCT012 FEW030CB OVC080 BECMG 2905/2907 23010G20KT 3000 -RA HZ BECMG 2909/2911 2500 -RA HZ TEMPO 2912/2918 1500 -TSRA SHRA FEW012 SCT018 FEW030CB OVC080 BECMG 2913/2915 23012KT 2000 -RA HZ


Runway Data for VABB
Data provided by openaviationdata.com

Runway ID Mag Var Hdg Length Elevation Surface ILS Freq ILS Id ILS Slope
9 -1 91° 11337 ft 37 ft Asphalt 109.5 IBOM 3
14 -1 136° 9622 ft 37 ft Asphalt 110.1 IBBY 3
27 -1 271° 11337 ft 37 ft Asphalt 110.3 ISCZ 3
32 -1 316° 9622 ft 37 ft Asphalt -- -- --

Mumbai / Santacruz, India, AS
Use only for reference purposes



Not for navigational purposes.